Time;durP1;ratioP1;P1;durP2;ratioP2;P2;SDS_P1;SDS_P2;PMS_P1;PMS_P2;Temp;Humidity;BMP_temperature;BMP_pressure;BME280_temperature;BME280_humidity;BME280_pressure;Samples;Min_cycle;Max_cycle;Signal;HPM_P1;HPM_P2
2023/01/19 00:01:45;;;;;;;10.77;7.20;;;-1.70;99.90;;;-141.84;76.77;18814.03;5052066;28;20524;-63
2023/01/19 00:04:13;;;;;;;13.70;7.30;;;-1.60;99.90;;;-141.84;77.40;18836.41;5051800;28;20232;-63
2023/01/19 00:06:41;;;;;;;10.87;7.17;;;-1.70;99.90;;;-141.84;78.08;18807.94;5051179;28;20838;-63
2023/01/19 00:09:09;;;;;;;11.13;7.90;;;-1.70;99.90;;;-141.84;76.49;18844.53;5051962;28;20231;-62
2023/01/19 00:11:38;;;;;;;9.97;7.40;;;-1.70;99.90;;;-141.84;76.63;18818.09;5051887;28;20231;-63
2023/01/19 00:14:06;;;;;;;12.70;7.40;;;-1.70;99.90;;;-141.84;76.50;18822.19;5051686;28;20219;-63
2023/01/19 00:16:36;;;;;;;11.77;7.37;;;-1.70;99.90;;;-141.84;76.75;18844.53;5052089;28;20220;-63
2023/01/19 00:19:04;;;;;;;11.87;7.07;;;-1.70;99.90;;;-141.84;76.28;18809.97;5051451;28;20235;-63
2023/01/19 00:21:32;;;;;;;11.07;7.53;;;-1.60;99.90;;;-141.84;75.87;18834.38;5051323;28;20747;-63
2023/01/19 00:24:00;;;;;;;12.40;7.27;;;-1.50;99.90;;;-141.84;76.28;18826.25;5051760;28;20229;-63
2023/01/19 00:26:29;;;;;;;9.73;6.53;;;-1.60;99.90;;;-141.84;76.17;18820.16;5051592;28;20601;-63
2023/01/19 00:28:57;;;;;;;10.73;7.00;;;-1.70;99.90;;;-141.84;76.36;18799.81;5051977;28;20212;-63
2023/01/19 00:31:25;;;;;;;11.67;7.17;;;-1.70;99.90;;;-141.84;75.98;18946.13;5050763;28;20232;-62
2023/01/19 00:33:54;;;;;;;10.63;6.83;;;-1.80;99.90;;;-141.84;76.33;18832.34;5051456;28;20377;-62
2023/01/19 00:36:22;;;;;;;11.70;6.63;;;-1.80;99.90;;;-141.84;76.65;18822.19;5050893;28;20234;-62
2023/01/19 00:38:51;;;;;;;10.50;7.00;;;-1.80;99.90;;;-141.84;76.70;18834.38;5051371;28;20727;-63
2023/01/19 00:42:38;;;;;;;10.03;6.87;;;-1.80;99.90;;;-141.84;77.02;18828.28;5050914;28;20204;-62
2023/01/19 00:44:07;;;;;;;10.23;6.87;;;-1.80;99.90;;;-141.84;76.81;18820.16;5050936;28;20594;-62
2023/01/19 00:46:35;;;;;;;10.13;6.40;;;-1.80;99.90;;;-141.84;77.35;18830.31;5051241;28;20218;-62
2023/01/19 00:49:05;;;;;;;11.30;7.10;;;-1.90;99.90;;;-141.84;77.23;18836.41;5051177;28;20229;-62
2023/01/19 00:51:34;;;;;;;12.40;7.73;;;-1.90;99.90;;;-141.84;77.30;18803.88;5050635;28;20227;-63
2023/01/19 00:54:03;;;;;;;9.87;7.37;;;-1.80;99.90;;;-141.84;76.74;18799.81;5050952;28;20668;-63
2023/01/19 00:56:32;;;;;;;10.67;7.30;;;-1.90;99.90;;;-141.84;77.33;18809.97;5050414;28;20290;-63
2023/01/19 00:59:00;;;;;;;10.77;7.70;;;-2.00;99.90;;;-141.84;77.96;18785.59;5050809;28;20206;-62
2023/01/19 01:01:28;;;;;;;11.67;8.00;;;-2.00;99.90;;;-141.84;77.62;18818.09;5031189;28;20673;-62
2023/01/19 01:04:14;;;;;;;12.63;7.60;;;-1.90;99.90;;;-141.84;77.61;18830.31;5048659;28;20301;-62
2023/01/19 01:06:42;;;;;;;9.20;6.73;;;-1.90;99.90;;;-141.84;78.07;18791.69;5050306;28;20731;-63
2023/01/19 01:09:11;;;;;;;11.70;7.57;;;-1.80;99.90;;;-141.84;78.95;18822.19;5050401;28;20667;-62
2023/01/19 01:11:40;;;;;;;12.00;7.97;;;-2.00;99.90;;;-141.84;78.89;18818.09;5050261;28;20700;-63
2023/01/19 01:14:09;;;;;;;11.07;7.10;;;-2.00;99.90;;;-141.84;79.21;18826.25;5050502;28;20220;-62
2023/01/19 01:16:37;;;;;;;11.13;7.20;;;-2.00;99.90;;;-141.84;79.10;18816.06;5050795;28;20295;-64
2023/01/19 01:19:06;;;;;;;8.63;7.20;;;-2.10;99.90;;;-141.84;77.88;18822.19;5050320;28;20776;-62
2023/01/19 01:21:36;;;;;;;13.90;7.03;;;-2.00;99.90;;;-141.84;76.86;18822.19;5050012;28;20239;-63
2023/01/19 01:24:05;;;;;;;15.07;7.77;;;-2.00;99.90;;;-141.84;77.13;18814.03;5050176;28;20235;-63
2023/01/19 01:26:33;;;;;;;11.13;7.17;;;-2.00;99.90;;;-141.84;76.86;18832.34;5050285;28;20236;-63
2023/01/19 01:29:01;;;;;;;13.10;7.13;;;-2.00;99.90;;;-141.84;76.91;18795.75;5050809;28;20204;-62
2023/01/19 01:31:30;;;;;;;12.37;7.43;;;-1.90;99.90;;;-141.84;77.58;18807.94;5051021;28;20227;-64
2023/01/19 01:33:58;;;;;;;10.77;7.33;;;-2.00;99.90;;;-141.84;77.81;18832.34;5050028;28;20227;-63
2023/01/19 01:36:32;;;;;;;12.10;7.47;;;-2.00;99.90;;;-141.84;78.01;18846.56;5025141;28;20241;-64
2023/01/19 01:39:01;;;;;;;11.30;6.60;;;-2.10;99.90;;;-141.84;78.18;18814.03;5010612;28;20708;-63
2023/01/19 01:41:30;;;;;;;11.57;7.23;;;-2.10;99.90;;;-141.84;78.59;18775.44;5012465;28;20230;-62
2023/01/19 01:44:00;;;;;;;14.40;7.93;;;-2.20;99.90;;;-141.84;78.45;18818.09;5010493;28;20271;-64
2023/01/19 01:46:31;;;;;;;10.77;7.30;;;-2.20;99.90;;;-141.84;78.53;18791.69;5030143;28;20307;-63
2023/01/19 01:49:07;;;;;;;11.00;6.97;;;-2.10;99.90;;;-141.84;78.59;18818.09;5029972;28;20318;-63
2023/01/19 01:51:42;;;;;;;10.43;6.90;;;-2.20;99.90;;;-141.84;78.64;18793.72;5029653;28;20232;-63
2023/01/19 01:54:20;;;;;;;12.50;7.13;;;-2.20;99.90;;;-141.84;78.34;18805.91;5030027;28;20326;-63
2023/01/19 01:56:52;;;;;;;10.13;6.73;;;-2.20;99.90;;;-141.84;78.60;18814.03;5036053;28;20228;-63
2023/01/19 01:59:28;;;;;;;11.07;6.90;;;-2.20;99.90;;;-141.84;78.73;18807.94;5049814;28;20193;-63
2023/01/19 02:04:52;;;;;;;9.10;6.57;;;-2.20;99.90;;;-141.84;78.85;18807.94;5049860;28;20751;-64
2023/01/19 02:13:20;;;;;;;8.90;6.37;;;-2.30;99.90;;;-141.84;76.01;18793.72;5049546;28;20245;-62
2023/01/19 02:15:51;;;;;;;9.60;6.07;;;-2.20;99.90;;;-141.84;76.05;18779.50;5049537;28;20231;-61
2023/01/19 02:18:22;;;;;;;8.73;6.47;;;-2.20;99.90;;;-141.84;76.48;18814.03;5049248;28;20232;-63
2023/01/19 02:21:03;;;;;;;8.27;6.10;;;-2.30;99.90;;;-141.84;76.56;18781.53;5049083;28;20764;-62
2023/01/19 02:23:43;;;;;;;11.27;6.50;;;-2.30;99.90;;;-141.84;76.91;18801.84;5049562;28;20228;-64
2023/01/19 02:26:17;;;;;;;8.50;5.30;;;-2.40;99.90;;;-141.84;77.01;18818.09;5049482;28;20632;-63
2023/01/19 02:28:50;;;;;;;9.57;6.33;;;-2.40;99.90;;;-141.84;77.36;18779.50;5050043;28;20200;-63
2023/01/19 02:31:19;;;;;;;9.23;6.07;;;-2.40;99.90;;;-141.84;76.51;18785.59;5049359;28;20484;-62
2023/01/19 02:33:47;;;;;;;8.53;6.10;;;-2.40;99.90;;;-141.84;76.28;18793.72;5049006;28;20232;-63
2023/01/19 02:36:21;;;;;;;9.60;6.30;;;-2.40;99.90;;;-141.84;75.96;18818.09;5048747;28;20785;-62
2023/01/19 02:38:55;;;;;;;10.17;6.17;;;-2.40;99.90;;;-141.84;76.18;18785.59;5030162;28;20237;-63
2023/01/19 02:41:29;;;;;;;8.27;5.77;;;-2.50;99.90;;;-141.84;76.84;18797.78;5029697;28;20256;-63
2023/01/19 02:43:58;;;;;;;9.40;5.67;;;-2.50;99.90;;;-141.84;76.74;18818.09;5029745;28;20699;-62
2023/01/19 02:46:27;;;;;;;7.57;5.47;;;-2.50;99.90;;;-141.84;76.28;18814.03;5029510;28;20232;-63
2023/01/19 02:48:59;;;;;;;7.53;5.83;;;-2.50;99.90;;;-141.84;76.03;18830.31;5029308;28;20241;-63
2023/01/19 02:51:28;;;;;;;9.53;5.40;;;-2.40;99.90;;;-141.84;75.31;18805.91;5031305;28;20239;-63
2023/01/19 02:54:23;;;;;;;8.80;5.57;;;-2.40;99.90;;;-141.84;74.73;18818.09;5049244;28;20224;-63
2023/01/19 02:57:10;;;;;;;9.07;5.30;;;-2.30;99.90;;;-141.84;75.07;18822.19;5052721;28;20228;-62
2023/01/19 02:59:58;;;;;;;8.57;5.27;;;-2.30;99.90;;;-141.84;75.40;18820.16;5053065;28;20616;-64
2023/01/19 03:02:46;;;;;;;9.27;5.90;;;-2.40;99.90;;;-141.84;76.08;18795.75;5053053;28;20234;-63
2023/01/19 03:05:34;;;;;;;6.90;5.00;;;-2.40;99.90;;;-141.84;74.43;18828.28;5053021;28;20184;-63
2023/01/19 03:08:16;;;;;;;6.83;4.90;;;-2.30;99.90;;;-141.84;73.25;18828.28;5052665;28;20648;-66
2023/01/19 03:10:59;;;;;;;7.70;5.27;;;-2.20;99.90;;;-141.84;72.88;18820.16;5053299;28;20184;-63
2023/01/19 03:13:41;;;;;;;5.93;4.63;;;-2.20;99.90;;;-141.84;73.40;18818.09;5052999;28;20214;-63
2023/01/19 03:16:20;;;;;;;7.60;5.37;;;-2.00;99.90;;;-141.84;74.43;18809.97;5052767;28;20224;-61
2023/01/19 03:18:55;;;;;;;7.50;4.90;;;-2.20;99.90;;;-141.84;73.47;18801.84;5052448;28;20633;-62
2023/01/19 03:21:29;;;;;;;8.10;4.93;;;-2.20;99.90;;;-141.84;73.25;18852.66;5052415;28;20611;-63
2023/01/19 03:24:02;;;;;;;10.40;4.90;;;;;;;-141.84;72.94;18848.59;5052554;28;20231;-62
2023/01/19 03:26:38;;;;;;;6.80;4.87;;;-2.10;99.90;;;-141.84;73.23;18826.25;5052677;28;20234;-63
2023/01/19 03:29:10;;;;;;;6.67;4.80;;;-2.20;99.90;;;-141.84;73.55;18822.19;5051557;28;20205;-62
2023/01/19 03:31:43;;;;;;;9.20;4.80;;;-2.30;99.90;;;-141.84;72.99;18814.03;5032807;28;20191;-61
2023/01/19 03:34:14;;;;;;;10.77;4.73;;;-2.30;99.90;;;-141.84;73.05;18795.75;5019972;28;20243;-62
2023/01/19 03:36:49;;;;;;;6.47;4.60;;;-2.30;99.90;;;-141.84;72.80;18854.69;5027086;28;20228;-61
2023/01/19 03:39:23;;;;;;;7.73;4.77;;;-2.30;99.90;;;-141.84;73.22;18850.63;5032064;28;20286;-62
2023/01/19 03:42:00;;;;;;;8.47;4.90;;;-2.30;99.90;;;-141.84;72.73;18844.53;5032413;28;20253;-61
2023/01/19 03:44:32;;;;;;;6.50;4.87;;;-2.40;99.90;;;-141.84;73.56;18820.16;5031869;28;20319;-62
2023/01/19 03:47:00;;;;;;;7.23;4.77;;;-2.40;99.90;;;-141.84;72.87;18818.09;5032757;28;20192;-63
2023/01/19 03:49:31;;;;;;;8.70;4.80;;;-2.40;99.90;;;-141.84;73.16;18812.00;5032143;28;20230;-62
2023/01/19 03:52:00;;;;;;;6.90;4.50;;;-2.40;99.90;;;-141.84;73.33;18842.50;5048014;28;20224;-62
2023/01/19 03:54:28;;;;;;;7.00;4.30;;;-2.50;99.90;;;-141.84;74.37;18828.28;5051583;28;20240;-62
2023/01/19 03:56:58;;;;;;;7.17;4.17;;;-2.50;99.90;;;-141.84;73.45;18820.16;5051687;28;20235;-63
2023/01/19 03:59:26;;;;;;;5.33;3.83;;;-2.50;99.90;;;-141.84;74.24;18826.25;5051636;28;20526;-62
2023/01/19 04:01:54;;;;;;;6.90;5.00;;;-2.60;99.90;;;-141.84;74.58;18812.00;5052627;28;20226;-60
2023/01/19 04:04:24;;;;;;;7.00;4.37;;;-2.70;99.90;;;-141.84;74.45;18799.81;5051275;28;20255;-63
2023/01/19 04:06:52;;;;;;;6.97;4.30;;;-2.70;99.90;;;-141.84;73.38;18803.88;5050820;28;20256;-62
2023/01/19 04:09:20;;;;;;;7.07;3.67;;;-2.60;99.90;;;-141.84;72.96;18824.22;5051448;28;20612;-61
2023/01/19 04:11:48;;;;;;;7.30;4.23;;;-2.60;99.90;;;-141.84;73.41;18787.63;5051455;28;20227;-63
2023/01/19 04:14:18;;;;;;;6.87;4.00;;;-2.70;99.90;;;-141.84;72.57;18814.03;5051433;28;20203;-61
2023/01/19 04:16:46;;;;;;;6.10;4.07;;;-2.60;99.90;;;-141.84;72.64;18814.03;5051823;28;20706;-62
2023/01/19 04:19:14;;;;;;;5.60;4.07;;;-2.60;99.90;;;-141.84;71.46;18836.41;5051339;28;20232;-61
2023/01/19 04:21:43;;;;;;;6.30;3.77;;;-2.60;99.90;;;-141.84;71.74;18838.44;5051361;28;20243;-63
2023/01/19 04:24:11;;;;;;;5.67;3.87;;;-2.60;99.90;;;-141.84;71.38;18834.38;5051293;28;20235;-62
2023/01/19 04:26:39;;;;;;;6.30;3.80;;;-2.60;99.90;;;-141.84;72.21;18834.38;5045929;28;20240;-62
2023/01/19 04:29:07;;;;;;;5.33;3.70;;;-2.70;99.90;;;-141.84;73.18;18814.03;5030275;28;20346;-63
2023/01/19 04:31:37;;;;;;;7.57;4.57;;;-2.70;99.90;;;-141.84;72.87;18795.75;5011736;28;20205;-63
2023/01/19 04:34:05;;;;;;;5.23;4.20;;;-2.80;99.90;;;-141.84;72.20;18822.19;5011618;28;20312;-62
2023/01/19 04:36:33;;;;;;;6.53;3.93;;;-2.80;99.90;;;-141.84;72.72;18807.94;5024471;28;20227;-62
2023/01/19 04:39:01;;;;;;;5.97;4.00;;;-2.80;99.90;;;-141.84;72.51;18826.25;5031043;28;20234;-62
2023/01/19 04:41:29;;;;;;;6.20;4.20;;;-2.80;99.90;;;-141.84;72.18;18828.28;5031076;28;20330;-62
2023/01/19 04:43:58;;;;;;;5.57;4.00;;;-2.70;99.90;;;-141.84;71.08;18822.19;5031742;28;20269;-62
2023/01/19 04:46:26;;;;;;;7.80;4.23;;;-2.60;99.90;;;-141.84;71.01;18838.44;5030731;28;20238;-63
2023/01/19 04:48:56;;;;;;;6.57;4.37;;;-2.70;99.90;;;-141.84;71.13;18822.19;5030864;28;20241;-62
2023/01/19 04:51:24;;;;;;;7.60;4.53;;;-2.70;99.90;;;-141.84;70.80;18820.16;5030159;28;20727;-62
2023/01/19 04:53:52;;;;;;;6.43;4.67;;;-2.70;99.90;;;-141.84;71.60;18809.97;5030973;28;20227;-61
2023/01/19 04:56:20;;;;;;;6.23;4.27;;;-2.70;99.90;;;-141.84;71.72;18856.72;5030241;28;20261;-61
2023/01/19 04:58:48;;;;;;;7.63;4.17;;;-2.80;99.90;;;-141.84;71.90;18805.91;5031451;28;20596;-62
2023/01/19 05:01:16;;;;;;;7.07;4.40;;;-2.80;99.90;;;-141.84;71.13;18830.31;5030531;28;20229;-63
2023/01/19 05:03:45;;;;;;;7.00;4.80;;;-2.80;99.90;;;-141.84;71.48;18809.97;5030642;28;20335;-62
2023/01/19 05:06:14;;;;;;;6.33;4.90;;;-2.80;99.90;;;-141.84;71.41;18822.19;5030620;28;20237;-62
2023/01/19 05:08:42;;;;;;;7.50;4.70;;;-2.80;99.90;;;-141.84;70.99;18850.63;5030485;28;20225;-61
2023/01/19 05:11:12;;;;;;;7.77;4.43;;;-2.70;99.90;;;-141.84;70.69;18824.22;5030314;28;20213;-62
2023/01/19 05:13:40;;;;;;;7.93;4.93;;;-2.60;99.90;;;-141.84;71.76;18846.56;5031033;28;20287;-63
2023/01/19 05:16:08;;;;;;;6.30;4.67;;;-2.70;99.90;;;-141.84;71.90;18801.84;5029998;28;20744;-62
2023/01/19 05:18:37;;;;;;;7.13;5.00;;;-2.70;99.90;;;-141.84;71.62;18828.28;5029575;28;20275;-61
2023/01/19 05:21:05;;;;;;;7.33;4.87;;;-2.80;99.90;;;-141.84;71.34;18826.25;5029919;28;20722;-61
2023/01/19 05:23:35;;;;;;;8.23;5.03;;;-2.70;99.90;;;-141.84;71.33;18828.28;5030238;28;20246;-63
2023/01/19 05:26:04;;;;;;;7.40;5.10;;;-2.70;99.90;;;-141.84;71.65;18826.25;5023459;28;20338;-61
2023/01/19 05:28:33;;;;;;;8.17;5.20;;;-2.80;99.90;;;-141.84;72.34;18830.31;5011467;28;20203;-61
2023/01/19 05:31:02;;;;;;;7.23;5.57;;;-2.80;99.90;;;-141.84;72.54;18803.88;5010313;28;20232;-62
2023/01/19 05:33:30;;;;;;;9.47;5.97;;;-2.80;99.90;;;-141.84;72.69;18801.84;5010450;28;20739;-62
2023/01/19 05:35:58;;;;;;;8.03;5.13;;;-2.80;99.90;;;-141.84;72.71;18846.56;5018594;28;20237;-62
2023/01/19 05:38:27;;;;;;;9.33;5.40;;;-2.80;99.90;;;-141.84;73.33;18828.28;5029903;28;20323;-61
2023/01/19 05:41:04;;;;;;;8.10;6.13;;;-2.90;99.90;;;-141.84;73.43;18807.94;5030103;28;20555;-63
2023/01/19 05:43:33;;;;;;;8.00;5.53;;;-2.90;99.90;;;-141.84;73.17;18836.41;5030521;28;20225;-61
2023/01/19 05:46:01;;;;;;;7.47;5.93;;;-2.90;99.90;;;-141.84;72.53;18840.47;5029712;28;20230;-62
2023/01/19 05:48:29;;;;;;;8.23;6.10;;;-2.80;99.90;;;-141.84;72.55;18809.97;5029898;28;20268;-63
2023/01/19 05:50:58;;;;;;;10.30;7.87;;;-2.70;99.90;;;-141.84;72.32;18840.47;5029612;28;20237;-61
2023/01/19 05:53:27;;;;;;;8.13;6.07;;;-2.70;99.90;;;-141.84;72.20;18820.16;5029598;28;20230;-63
2023/01/19 05:56:00;;;;;;;8.93;6.43;;;-2.70;99.90;;;-141.84;72.91;18856.72;5029829;28;20243;-63
2023/01/19 05:58:30;;;;;;;8.93;6.77;;;-2.70;99.90;;;-141.84;72.17;18822.19;5030230;28;20884;-61
2023/01/19 06:01:04;;;;;;;11.23;6.60;;;-2.60;99.90;;;-141.84;72.21;18828.28;5029703;28;20228;-63
2023/01/19 06:03:33;;;;;;;11.10;6.93;;;-2.60;99.90;;;-141.84;72.22;18830.31;5029889;28;20698;-62
2023/01/19 06:06:02;;;;;;;9.87;6.37;;;-2.50;99.90;;;-141.84;71.52;18864.84;5020111;28;20229;-61
2023/01/19 06:08:31;;;;;;;8.30;6.40;;;-2.50;99.90;;;-141.84;71.76;18840.47;5009717;28;20236;-61
2023/01/19 06:10:59;;;;;;;9.37;6.80;;;-2.40;99.90;;;-141.84;72.13;18834.38;5010272;28;20214;-62
2023/01/19 06:13:29;;;;;;;10.00;6.80;;;-2.40;99.90;;;-141.84;72.31;18840.47;5010165;28;20729;-64
2023/01/19 06:15:58;;;;;;;11.13;6.77;;;-2.50;99.90;;;-141.84;72.40;18848.59;5009817;28;20225;-64
2023/01/19 06:18:27;;;;;;;9.93;6.87;;;-2.40;99.90;;;-141.84;72.16;18834.38;5018139;28;20303;-63
2023/01/19 06:20:57;;;;;;;8.63;6.27;;;-2.40;99.90;;;-141.84;72.10;18834.38;5036691;28;20584;-61
2023/01/19 06:23:26;;;;;;;10.83;7.40;;;-2.40;99.90;;;-141.84;72.12;18834.38;5033436;28;20240;-62
2023/01/19 06:25:54;;;;;;;9.10;7.07;;;-2.40;99.90;;;-141.84;72.04;18862.81;5030087;28;20223;-61
2023/01/19 06:28:22;;;;;;;10.67;7.10;;;-2.40;99.90;;;-141.84;72.24;18856.72;5029779;28;20231;-61
2023/01/19 06:30:54;;;;;;;9.63;7.20;;;-2.30;99.90;;;-141.84;72.78;18795.75;5033511;28;20231;-60
2023/01/19 06:33:24;;;;;;;12.67;8.47;;;-2.40;99.90;;;-141.84;73.07;18848.59;5033324;28;20283;-62
2023/01/19 06:35:52;;;;;;;11.00;7.27;;;-2.40;99.90;;;-141.84;72.30;18854.69;5040927;28;20265;-63
2023/01/19 06:38:20;;;;;;;11.77;7.60;;;-2.30;99.90;;;-141.84;72.27;18836.41;5052739;28;20226;-62
2023/01/19 06:40:54;;;;;;;13.17;10.13;;;-2.30;99.90;;;-141.84;72.24;18864.84;5053645;28;20206;-63
2023/01/19 06:43:22;;;;;;;12.20;7.77;;;-2.30;99.90;;;-141.84;72.27;18826.25;5053091;28;20235;-63
2023/01/19 06:45:52;;;;;;;9.87;7.67;;;-2.40;99.90;;;-141.84;72.50;18848.59;5053165;28;20632;-61
2023/01/19 06:48:21;;;;;;;8.83;7.50;;;-2.30;99.90;;;-141.84;72.38;18814.03;5053077;28;20241;-63
2023/01/19 06:50:49;;;;;;;11.50;8.17;;;-2.30;99.90;;;-141.84;72.34;18812.00;5053154;28;20233;-62
2023/01/19 06:53:19;;;;;;;13.30;8.20;;;-2.30;99.90;;;-141.84;72.69;18822.19;5052554;28;20199;-61
2023/01/19 06:55:47;;;;;;;13.27;8.37;;;-2.30;99.90;;;-141.84;73.07;18820.16;5052996;28;20229;-61
2023/01/19 06:58:16;;;;;;;12.20;8.00;;;-2.30;99.90;;;-141.84;72.67;18832.34;5052831;28;20230;-62
2023/01/19 07:00:44;;;;;;;10.33;7.80;;;-2.30;99.90;;;-141.84;72.45;18832.34;5052680;28;20228;-62
2023/01/19 07:03:20;;;;;;;12.83;8.07;;;-2.30;99.90;;;-141.84;72.43;18842.50;5052789;28;20228;-60
2023/01/19 07:05:52;;;;;;;11.63;8.20;;;-2.30;99.90;;;-141.84;72.85;18816.06;5039102;28;20228;-61
2023/01/19 07:08:20;;;;;;;13.53;8.93;;;-2.20;99.90;;;-141.84;72.52;18826.25;5012991;28;20193;-61
2023/01/19 07:10:49;;;;;;;12.07;9.37;;;-2.30;99.90;;;-141.84;73.17;18822.19;5013645;28;20215;-61
2023/01/19 07:13:39;;;;;;;13.80;8.70;;;-2.20;99.90;;;-141.84;72.90;18824.22;5032898;28;20252;-61
2023/01/19 07:16:11;;;;;;;11.00;8.10;;;-2.20;99.90;;;-141.84;72.87;18832.34;5032782;28;20228;-61
2023/01/19 07:18:41;;;;;;;11.97;8.80;;;-2.20;99.90;;;-141.84;72.89;18822.19;5029264;28;20712;-62
2023/01/19 07:21:09;;;;;;;12.07;8.47;;;-2.30;99.90;;;-141.84;73.31;18834.38;5032733;28;20232;-62
2023/01/19 07:23:37;;;;;;;11.70;8.80;;;-2.20;99.90;;;-141.84;73.36;18797.78;5032483;28;20240;-61
2023/01/19 07:26:06;;;;;;;10.73;8.67;;;-2.20;99.90;;;-141.84;73.52;18826.25;5032604;28;20553;-62
2023/01/19 07:28:35;;;;;;;14.77;8.90;;;-2.20;99.90;;;-141.84;72.70;18852.66;5033161;28;20197;-61
2023/01/19 07:31:04;;;;;;;12.67;9.17;;;-2.10;99.90;;;-141.84;72.62;18834.38;5032339;28;20238;-61
2023/01/19 07:33:32;;;;;;;13.87;9.13;;;-2.10;99.90;;;-141.84;72.80;18836.41;5032166;28;20719;-61
2023/01/19 07:36:02;;;;;;;11.80;8.67;;;-2.10;99.90;;;-141.84;72.64;18824.22;5031988;28;20235;-62
2023/01/19 07:38:30;;;;;;;12.43;8.40;;;-2.10;99.90;;;-141.84;72.43;18854.69;5032146;28;20239;-61
2023/01/19 07:41:02;;;;;;;12.43;8.97;;;-2.00;99.90;;;-141.84;72.52;18832.34;5031774;28;20674;-60
2023/01/19 07:43:30;;;;;;;14.77;9.63;;;-2.00;99.90;;;-141.84;72.55;18822.19;5032433;28;20651;-61
2023/01/19 07:45:59;;;;;;;13.30;9.53;;;-2.00;99.90;;;-141.84;72.83;18828.28;5032195;28;20239;-61
2023/01/19 07:48:28;;;;;;;12.90;8.60;;;-2.00;99.90;;;-141.84;71.99;18840.47;5032157;28;20234;-62
2023/01/19 07:51:04;;;;;;;11.53;8.23;;;-2.00;99.90;;;-141.84;72.47;18842.50;5031876;28;20762;-61
2023/01/19 07:53:32;;;;;;;11.73;8.50;;;-2.00;99.90;;;-141.84;71.94;18830.31;5031921;28;20234;-61
2023/01/19 07:56:00;;;;;;;13.77;9.33;;;-1.90;99.90;;;-141.84;71.90;18828.28;5032341;28;20240;-61
2023/01/19 07:58:28;;;;;;;14.50;9.00;;;-1.90;99.90;;;-141.84;72.11;18862.81;5032160;28;20224;-61
2023/01/19 08:00:56;;;;;;;12.20;8.80;;;-1.90;99.90;;;-141.84;72.43;18856.72;5031733;28;20842;-61
2023/01/19 08:03:25;;;;;;;13.80;9.40;;;-1.90;99.90;;;-141.84;72.38;18844.53;5031684;28;20320;-63
2023/01/19 08:05:55;;;;;;;13.70;8.73;;;-1.90;99.90;;;-141.84;72.48;18834.38;5039700;28;20235;-62
2023/01/19 08:08:25;;;;;;;13.20;8.23;;;-1.90;99.90;;;-141.84;72.50;18834.38;5051771;28;20239;-63
2023/01/19 08:10:53;;;;;;;13.00;8.57;;;-1.80;99.90;;;-141.84;72.27;18852.66;5059849;28;20205;-62
2023/01/19 08:13:21;;;;;;;10.67;8.27;;;-1.70;99.90;;;-141.84;71.71;18846.56;5071422;28;20338;-61
2023/01/19 08:15:51;;;;;;;12.80;8.70;;;-1.70;99.90;;;-141.84;72.30;18846.56;5053564;28;20232;-62
2023/01/19 08:18:19;;;;;;;13.37;8.53;;;-1.60;99.90;;;-141.84;72.09;18805.91;5051846;28;20238;-62
2023/01/19 08:20:48;;;;;;;13.70;8.40;;;-1.60;99.90;;;-141.84;71.50;18830.31;5051517;28;20310;-62
2023/01/19 08:23:16;;;;;;;11.57;8.20;;;-1.50;99.90;;;-141.84;71.90;18838.44;5051127;28;20205;-61
2023/01/19 08:25:46;;;;;;;11.33;8.60;;;-1.40;99.90;;;-141.84;71.36;18850.63;5051871;28;20201;-62
2023/01/19 08:28:17;;;;;;;10.77;8.90;;;-1.30;99.90;;;-141.84;70.79;18846.56;5051045;28;20606;-62
2023/01/19 08:30:52;;;;;;;10.93;8.67;;;-1.30;99.90;;;-141.84;70.74;18858.75;5051520;28;20606;-62
2023/01/19 08:33:21;;;;;;;10.93;8.40;;;-1.20;99.90;;;-141.84;70.53;18881.09;5051296;28;20535;-61
2023/01/19 08:35:52;;;;;;;12.47;7.97;;;-1.10;99.90;;;-141.84;69.88;18887.19;5051258;28;20316;-61
2023/01/19 08:38:21;;;;;;;10.50;7.73;;;-1.00;99.90;;;-141.84;69.52;18919.69;5051081;28;20194;-61
2023/01/19 08:40:51;;;;;;;12.37;7.83;;;-0.90;99.90;;;-141.84;69.98;18911.56;5052009;28;20220;-62
2023/01/19 08:43:19;;;;;;;12.40;9.13;;;-1.00;99.90;;;-141.84;69.22;18883.13;5051037;28;20715;-62
2023/01/19 08:45:54;;;;;;;13.73;8.53;;;-0.90;99.90;;;-141.84;69.27;18877.03;5051095;28;20658;-63
2023/01/19 08:48:23;;;;;;;11.87;8.20;;;-0.90;99.90;;;-141.84;68.99;18893.28;5050888;28;20240;-61
2023/01/19 08:50:52;;;;;;;10.67;8.10;;;-0.70;99.90;;;-141.84;69.04;18909.53;5051209;28;20236;-62
2023/01/19 08:53:22;;;;;;;11.50;8.40;;;-0.80;99.90;;;-141.84;68.90;18923.78;5050635;28;20264;-62
2023/01/19 08:55:58;;;;;;;12.13;7.90;;;-0.70;99.90;;;-141.84;68.91;18903.44;5051235;28;20596;-62
2023/01/19 08:58:27;;;;;;;10.30;8.10;;;-0.60;99.90;;;-141.84;68.70;18923.78;5050859;28;20245;-61
2023/01/19 09:00:55;;;;;;;9.80;7.57;;;-0.60;99.90;;;-141.84;69.16;18917.66;5050717;28;20232;-63
2023/01/19 09:03:24;;;;;;;12.20;8.17;;;-0.40;99.90;;;-141.84;68.06;18929.88;5050688;28;20307;-61
2023/01/19 09:05:52;;;;;;;10.80;8.13;;;-0.30;99.90;;;-141.84;67.82;18895.31;5046664;28;20232;-61
2023/01/19 09:08:20;;;;;;;11.87;8.27;;;-0.20;99.90;;;-141.84;67.30;18940.03;5037568;28;20236;-62
2023/01/19 09:10:51;;;;;;;10.33;7.90;;;-0.10;99.90;;;-141.84;67.26;18929.88;5033105;28;20682;-62
2023/01/19 09:13:20;;;;;;;12.33;8.17;;;-0.10;99.90;;;-141.84;67.59;18925.81;5030505;28;20233;-62
2023/01/19 09:15:49;;;;;;;13.50;8.63;;;-0.10;99.90;;;-141.84;67.98;18923.78;5047611;28;20233;-61
2023/01/19 09:18:19;;;;;;;11.83;8.90;;;-0.10;99.90;;;-141.84;67.91;18925.81;5050308;28;20231;-61
2023/01/19 09:20:50;;;;;;;13.87;10.00;;;0.00;99.90;;;-141.84;67.75;18907.50;5049910;28;20236;-60
2023/01/19 09:23:21;;;;;;;11.07;8.20;;;0.00;99.90;;;-141.84;68.54;18929.88;5050278;28;20848;-62
2023/01/19 09:25:56;;;;;;;11.27;8.30;;;-0.10;99.90;;;-141.84;68.08;18929.88;5050880;28;20187;-61
2023/01/19 09:28:25;;;;;;;11.07;8.33;;;-0.10;99.90;;;-141.84;67.72;18915.63;5050098;28;20232;-62
2023/01/19 09:30:54;;;;;;;13.40;8.67;;;0.10;99.90;;;-141.84;67.89;18944.09;5050035;28;20348;-61
2023/01/19 09:33:23;;;;;;;12.80;8.50;;;0.10;99.90;;;-141.84;67.93;18907.50;5050158;28;20614;-62
2023/01/19 09:35:52;;;;;;;10.90;7.67;;;0.10;99.90;;;-141.84;67.42;18921.75;5035575;28;20257;-61
2023/01/19 09:38:21;;;;;;;11.53;7.70;;;0.20;99.90;;;-141.84;67.54;18958.31;5010504;28;20307;-61
2023/01/19 09:40:53;;;;;;;12.40;7.90;;;0.30;99.90;;;-141.84;67.71;18935.97;5010389;28;20301;-61
2023/01/19 09:43:39;;;;;;;11.13;8.57;;;0.30;99.90;;;-141.84;67.47;18964.41;5010322;28;20236;-62
2023/01/19 09:46:16;;;;;;;10.33;7.97;;;0.40;99.90;;;-141.84;66.87;18978.63;5010268;28;20741;-62
2023/01/19 09:48:49;;;;;;;10.97;8.07;;;0.50;99.90;;;-141.84;66.43;18964.41;5018500;28;20792;-62
2023/01/19 09:51:22;;;;;;;11.07;8.40;;;0.60;99.90;;;-141.84;66.49;18968.47;5029808;28;20230;-62
2023/01/19 09:54:13;;;;;;;13.07;8.07;;;0.60;99.90;;;-141.84;66.14;18964.41;5030226;28;20226;-63
2023/01/19 09:56:44;;;;;;;11.17;8.13;;;0.70;99.90;;;-141.84;66.60;18946.13;5029166;28;20229;-62
2023/01/19 09:59:22;;;;;;;12.13;8.30;;;0.70;99.90;;;-141.84;66.05;18962.38;5030076;28;20543;-62
2023/01/19 10:02:12;;;;;;;11.17;8.27;;;0.70;99.90;;;-141.84;66.68;18990.81;5030328;28;20187;-62
2023/01/19 10:04:43;;;;;;;11.03;8.40;;;0.80;99.90;;;-141.84;66.11;18996.91;5048955;28;20219;-63
2023/01/19 10:07:34;;;;;;;10.73;7.77;;;0.80;99.90;;;-141.84;65.79;18984.72;5043664;28;20221;-62
2023/01/19 10:10:17;;;;;;;12.37;8.10;;;0.90;99.90;;;-141.84;66.21;18968.47;5029802;28;20721;-62
2023/01/19 10:13:12;;;;;;;11.27;8.07;;;0.80;99.90;;;-141.84;66.38;18954.25;5029623;28;20237;-61
2023/01/19 10:15:55;;;;;;;11.87;8.60;;;0.80;99.90;;;-141.84;66.82;18968.47;5043648;28;20356;-61
2023/01/19 10:18:31;;;;;;;13.00;8.17;;;0.90;99.90;;;-141.84;65.63;18964.41;5049661;28;20268;-62
2023/01/19 10:21:09;;;;;;;10.53;8.03;;;0.90;99.90;;;-141.84;65.77;18978.63;5049137;28;20698;-62
2023/01/19 10:23:44;;;;;;;11.67;8.53;;;1.00;99.90;;;-141.84;65.30;18994.88;5049787;28;20234;-62
2023/01/19 10:26:20;;;;;;;11.20;8.37;;;1.10;99.90;;;-141.84;65.09;18970.50;5049404;28;20590;-61
2023/01/19 10:28:55;;;;;;;12.37;8.93;;;1.10;99.90;;;-141.84;65.00;18996.91;5050173;28;20205;-61